createdAt,value
2022-10-24T00:00:13.625Z,18.60
2022-10-24T00:02:59.957Z,18.60
2022-10-24T00:05:47.187Z,18.60
2022-10-24T00:08:33.287Z,18.60
2022-10-24T00:11:22.196Z,18.60
2022-10-24T00:14:07.595Z,18.60
2022-10-24T00:16:53.850Z,18.60
2022-10-24T00:19:39.343Z,18.60
2022-10-24T00:22:24.843Z,18.50
2022-10-24T00:25:10.678Z,18.50
2022-10-24T00:27:56.174Z,18.50
2022-10-24T00:30:41.836Z,18.40
2022-10-24T00:33:27.813Z,18.30
2022-10-24T00:36:16.896Z,18.10
2022-10-24T00:39:03.446Z,18.00
2022-10-24T00:41:49.497Z,17.90
2022-10-24T00:44:39.504Z,17.80
2022-10-24T00:47:27.326Z,17.70
2022-10-24T00:50:15.189Z,17.60
2022-10-24T00:53:00.980Z,17.40
2022-10-24T00:55:50.564Z,17.40
2022-10-24T00:58:38.044Z,17.30
2022-10-24T01:01:25.708Z,17.20
2022-10-24T01:04:13.627Z,17.20
2022-10-24T01:07:15.090Z,17.10
2022-10-24T01:10:20.989Z,17.10
2022-10-24T01:13:24.811Z,17.10
2022-10-24T01:16:21.998Z,17.10
2022-10-24T01:19:26.171Z,17.10
2022-10-24T01:22:24.604Z,17.00
2022-10-24T01:25:16.789Z,16.90
2022-10-24T01:28:18.729Z,17.10
2022-10-24T01:31:20.549Z,17.30
2022-10-24T01:34:17.550Z,17.10
2022-10-24T01:37:28.699Z,17.00
2022-10-24T01:40:20.886Z,17.00
2022-10-24T01:43:13.025Z,17.00
2022-10-24T01:46:03.114Z,17.00
2022-10-24T01:48:55.423Z,17.10
2022-10-24T01:51:42.208Z,17.00
2022-10-24T01:54:29.918Z,17.00
2022-10-24T01:57:16.298Z,16.80
2022-10-24T02:00:02.611Z,16.80
2022-10-24T02:03:06.308Z,16.90
2022-10-24T02:05:56.770Z,16.90
2022-10-24T02:08:46.839Z,16.80
2022-10-24T02:11:34.961Z,16.70
2022-10-24T02:14:34.029Z,16.70
2022-10-24T02:17:19.871Z,16.70
2022-10-24T02:20:06.783Z,16.90
2022-10-24T02:23:00.944Z,16.80
2022-10-24T02:25:51.021Z,16.70
2022-10-24T02:28:42.497Z,16.70
2022-10-24T02:31:33.225Z,16.80
2022-10-24T02:34:21.616Z,16.80
2022-10-24T02:37:09.159Z,16.80
2022-10-24T02:39:57.548Z,16.80
2022-10-24T02:42:46.325Z,16.80
2022-10-24T02:45:34.007Z,16.80
2022-10-24T02:48:24.162Z,16.80
2022-10-24T02:51:10.218Z,16.80
2022-10-24T02:53:56.656Z,16.60
2022-10-24T02:56:53.220Z,16.60
2022-10-24T02:59:39.467Z,16.50
2022-10-24T03:02:25.505Z,16.50
2022-10-24T03:05:11.265Z,16.40
2022-10-24T03:07:56.641Z,16.30
2022-10-24T03:10:42.188Z,16.40
2022-10-24T03:13:28.027Z,16.40
2022-10-24T03:16:14.319Z,16.40
2022-10-24T03:19:00.024Z,16.40
2022-10-24T03:21:45.781Z,16.40
2022-10-24T03:24:43.634Z,16.40
2022-10-24T03:27:30.705Z,16.40
2022-10-24T03:30:16.856Z,16.40
2022-10-24T03:33:02.559Z,16.50
2022-10-24T03:35:52.687Z,16.50
2022-10-24T03:38:38.334Z,16.50
2022-10-24T03:41:23.757Z,16.40
2022-10-24T03:44:09.445Z,16.50
2022-10-24T03:46:55.025Z,16.40
2022-10-24T03:49:40.556Z,16.40
2022-10-24T03:52:26.494Z,16.40
2022-10-24T03:55:12.808Z,16.30
2022-10-24T03:57:59.097Z,16.20
2022-10-24T04:00:44.935Z,16.10
2022-10-24T04:03:30.375Z,16.00
2022-10-24T04:06:16.016Z,15.90
2022-10-24T04:09:01.536Z,16.00
2022-10-24T04:11:48.365Z,16.00
2022-10-24T04:14:33.937Z,15.90
2022-10-24T04:17:19.588Z,15.90
2022-10-24T04:20:05.957Z,15.80
2022-10-24T04:22:51.778Z,15.80
2022-10-24T04:25:37.272Z,15.80
2022-10-24T04:28:22.868Z,15.80
2022-10-24T04:31:08.491Z,16.00
2022-10-24T04:33:54.122Z,16.00
2022-10-24T04:36:39.715Z,16.10
2022-10-24T04:39:25.217Z,16.10
2022-10-24T04:42:10.843Z,16.20
2022-10-24T04:44:56.280Z,16.20
2022-10-24T04:47:41.970Z,16.30
2022-10-24T04:50:27.956Z,16.20
2022-10-24T04:53:14.238Z,16.10
2022-10-24T04:56:00.149Z,16.20
2022-10-24T04:58:45.607Z,16.30
2022-10-24T05:01:31.210Z,16.60
2022-10-24T05:04:16.772Z,16.70
2022-10-24T05:07:02.016Z,16.90
2022-10-24T05:09:48.001Z,17.00
2022-10-24T05:12:33.409Z,16.90
2022-10-24T05:15:19.079Z,16.90
2022-10-24T05:18:04.814Z,16.90
2022-10-24T05:20:50.360Z,16.90
2022-10-24T05:23:36.161Z,16.80
2022-10-24T05:26:21.604Z,16.70
2022-10-24T05:31:53.248Z,16.70
2022-10-24T05:34:38.609Z,16.60
2022-10-24T05:37:24.491Z,16.60
2022-10-24T05:40:11.961Z,16.50
2022-10-24T05:42:57.866Z,16.40
2022-10-24T05:45:43.794Z,16.50
2022-10-24T05:48:29.553Z,16.40
2022-10-24T05:51:14.959Z,16.40
2022-10-24T05:54:00.685Z,16.50
2022-10-24T05:56:46.202Z,16.50
2022-10-24T05:59:31.981Z,16.60
2022-10-24T06:02:20.283Z,16.50
2022-10-24T06:05:06.982Z,16.60
2022-10-24T06:07:52.539Z,16.60
2022-10-24T06:10:38.581Z,16.60
2022-10-24T06:13:24.243Z,16.60
2022-10-24T06:16:11.941Z,16.50
2022-10-24T06:18:58.110Z,16.50
2022-10-24T06:21:43.922Z,16.50
2022-10-24T06:24:29.319Z,16.40
2022-10-24T06:27:14.919Z,16.40
2022-10-24T06:30:00.650Z,16.40
2022-10-24T06:32:46.555Z,16.40
2022-10-24T06:35:32.139Z,16.20
2022-10-24T06:38:17.768Z,16.20
2022-10-24T06:41:09.138Z,16.20
2022-10-24T06:43:56.515Z,16.30
2022-10-24T06:46:42.335Z,16.10
2022-10-24T06:49:27.991Z,16.10
2022-10-24T06:52:13.462Z,15.90
2022-10-24T06:54:59.089Z,15.90
2022-10-24T06:57:44.833Z,15.80
2022-10-24T07:00:30.608Z,15.90
2022-10-24T07:03:16.947Z,15.80
2022-10-24T07:06:18.013Z,16.00
2022-10-24T07:09:05.726Z,16.00
2022-10-24T07:11:53.534Z,16.00
2022-10-24T07:14:39.427Z,16.00
2022-10-24T07:17:25.252Z,15.90
2022-10-24T07:20:12.424Z,15.90
2022-10-24T07:22:58.054Z,15.90
2022-10-24T07:25:44.930Z,16.00
2022-10-24T07:28:30.789Z,16.00
2022-10-24T07:31:22.048Z,16.00
2022-10-24T07:34:10.051Z,16.10
2022-10-24T07:36:55.676Z,16.00
2022-10-24T07:39:41.038Z,16.00
2022-10-24T07:42:26.830Z,16.00
2022-10-24T07:45:12.779Z,15.90
2022-10-24T07:48:00.305Z,15.90
2022-10-24T07:50:47.582Z,15.80
2022-10-24T07:53:33.218Z,15.80
2022-10-24T07:56:19.156Z,15.80
2022-10-24T07:59:09.512Z,15.90
2022-10-24T08:01:59.557Z,16.00
2022-10-24T08:04:45.375Z,16.00
2022-10-24T08:07:31.247Z,16.00
2022-10-24T08:10:17.438Z,16.10
2022-10-24T08:13:04.029Z,16.10
2022-10-24T08:15:49.871Z,16.10
2022-10-24T08:18:39.437Z,16.10
2022-10-24T08:21:26.469Z,15.90
2022-10-24T08:24:12.118Z,15.90
2022-10-24T08:26:57.912Z,16.00
2022-10-24T08:29:43.625Z,16.00
2022-10-24T08:32:29.046Z,16.00
2022-10-24T08:35:19.978Z,16.10
2022-10-24T08:38:05.438Z,16.00
2022-10-24T08:40:51.077Z,16.00
2022-10-24T08:43:36.778Z,16.00
2022-10-24T08:46:31.103Z,16.10
2022-10-24T08:49:46.442Z,16.10
2022-10-24T08:52:40.798Z,16.20
2022-10-24T08:55:49.201Z,16.10
2022-10-24T08:58:44.310Z,16.20
2022-10-24T09:01:52.643Z,16.20
2022-10-24T09:04:51.490Z,16.20
2022-10-24T09:07:38.113Z,16.20
2022-10-24T09:10:52.218Z,16.30
2022-10-24T09:13:38.664Z,16.30
2022-10-24T09:16:25.462Z,16.40
2022-10-24T09:19:18.499Z,16.40
2022-10-24T09:22:04.491Z,16.40
2022-10-24T09:24:59.244Z,16.40
2022-10-24T09:27:45.195Z,16.30
2022-10-24T09:30:33.503Z,16.40
2022-10-24T09:33:31.518Z,16.40
2022-10-24T09:36:20.529Z,16.50
2022-10-24T09:39:29.573Z,16.60
2022-10-24T09:42:24.165Z,16.60
2022-10-24T09:45:27.868Z,16.50
2022-10-24T09:48:30.109Z,16.50
2022-10-24T09:51:41.826Z,16.40
2022-10-24T09:54:30.152Z,16.40
2022-10-24T09:57:18.147Z,16.50
2022-10-24T10:00:05.183Z,16.60
2022-10-24T10:03:23.599Z,16.70
2022-10-24T10:06:19.197Z,16.70
2022-10-24T10:09:13.867Z,16.60
2022-10-24T10:12:03.312Z,16.60
2022-10-24T10:14:49.078Z,16.60
2022-10-24T10:17:34.801Z,16.60
2022-10-24T10:20:41.302Z,16.60
2022-10-24T10:23:33.284Z,16.50
2022-10-24T10:26:27.529Z,16.50
2022-10-24T10:29:19.583Z,16.40
2022-10-24T10:32:23.088Z,16.40
2022-10-24T10:35:43.575Z,16.40
2022-10-24T10:38:40.719Z,16.40
2022-10-24T10:44:52.656Z,16.50
2022-10-24T10:48:16.486Z,16.50
2022-10-24T10:51:08.593Z,16.60
2022-10-24T10:54:06.364Z,16.80
2022-10-24T10:57:02.944Z,16.80
2022-10-24T11:00:00.141Z,16.90
2022-10-24T11:03:17.129Z,16.90
2022-10-24T11:06:26.604Z,17.00
2022-10-24T11:09:23.142Z,17.00
2022-10-24T11:12:14.488Z,17.00
2022-10-24T11:15:07.056Z,17.00
2022-10-24T11:18:06.377Z,17.00
2022-10-24T11:21:02.215Z,16.90
2022-10-24T11:23:55.844Z,16.70
2022-10-24T11:26:48.622Z,16.70
2022-10-24T11:29:40.834Z,16.70
2022-10-24T11:32:47.766Z,16.70
2022-10-24T11:35:37.401Z,16.70
2022-10-24T11:38:24.769Z,16.80
2022-10-24T11:41:49.292Z,16.90
2022-10-24T11:44:59.050Z,16.80
2022-10-24T11:47:58.642Z,16.90
2022-10-24T11:50:50.381Z,16.90
2022-10-24T11:53:35.846Z,16.90
2022-10-24T11:56:46.802Z,17.00
2022-10-24T11:59:32.543Z,17.00
2022-10-24T12:02:48.621Z,17.10
2022-10-24T12:05:42.430Z,17.10
2022-10-24T12:08:52.149Z,17.20
2022-10-24T12:12:02.723Z,17.30
2022-10-24T12:15:06.583Z,17.30
2022-10-24T12:18:09.269Z,17.30
2022-10-24T12:20:57.452Z,17.30
2022-10-24T12:23:52.658Z,17.40
2022-10-24T12:26:38.719Z,17.40
2022-10-24T12:29:27.348Z,17.30
2022-10-24T12:32:25.429Z,17.40
2022-10-24T12:35:35.211Z,17.40
2022-10-24T12:38:29.891Z,17.40
2022-10-24T12:41:33.354Z,17.50
2022-10-24T12:44:34.048Z,17.60
2022-10-24T12:47:32.946Z,17.70
2022-10-24T12:50:21.833Z,17.70
2022-10-24T12:53:30.067Z,17.70
2022-10-24T12:56:21.328Z,17.70
2022-10-24T12:59:33.730Z,17.70
2022-10-24T13:02:49.204Z,17.70
2022-10-24T13:05:34.433Z,17.70
2022-10-24T13:08:57.856Z,17.70
2022-10-24T13:12:03.289Z,17.70
2022-10-24T13:14:51.802Z,17.70
2022-10-24T13:18:16.038Z,17.70
2022-10-24T13:21:26.957Z,17.70
2022-10-24T13:24:15.395Z,17.70
2022-10-24T13:27:04.136Z,17.80
2022-10-24T13:29:49.725Z,17.80
2022-10-24T13:32:36.207Z,17.80
2022-10-24T13:35:25.319Z,17.80
2022-10-24T13:38:14.517Z,17.80
2022-10-24T13:41:00.283Z,17.90
2022-10-24T13:43:51.832Z,17.80
2022-10-24T13:46:46.844Z,17.90
2022-10-24T13:49:38.262Z,17.90
2022-10-24T13:52:33.228Z,18.00
2022-10-24T13:55:22.042Z,18.00
2022-10-24T13:58:13.201Z,18.00
2022-10-24T14:01:22.962Z,17.90
2022-10-24T14:04:08.932Z,17.90
2022-10-24T14:07:10.085Z,17.90
2022-10-24T14:10:08.646Z,18.00
2022-10-24T14:12:57.262Z,18.00
2022-10-24T14:15:49.064Z,18.00
2022-10-24T14:18:37.049Z,18.00
2022-10-24T14:21:22.971Z,18.00
2022-10-24T14:24:15.590Z,18.00
2022-10-24T14:27:02.251Z,18.00
2022-10-24T14:29:57.895Z,17.90
2022-10-24T14:32:43.726Z,17.90
2022-10-24T14:35:29.228Z,17.90
2022-10-24T14:38:17.634Z,17.90
2022-10-24T14:41:10.453Z,18.10
2022-10-24T14:43:58.999Z,18.30
2022-10-24T14:46:46.874Z,18.60
2022-10-24T14:49:36.972Z,18.90
2022-10-24T14:52:37.252Z,19.10
2022-10-24T14:55:23.046Z,19.30
2022-10-24T14:58:22.729Z,19.40
2022-10-24T15:01:19.896Z,19.40
2022-10-24T15:04:06.480Z,19.20
2022-10-24T15:06:56.387Z,19.10
2022-10-24T15:09:56.447Z,19.00
2022-10-24T15:13:07.128Z,18.90
2022-10-24T15:15:55.265Z,19.00
2022-10-24T15:18:43.943Z,19.10
2022-10-24T15:21:35.857Z,19.20
2022-10-24T15:24:26.819Z,19.10
2022-10-24T15:27:13.221Z,19.00
2022-10-24T15:29:59.005Z,19.00
2022-10-24T15:32:44.849Z,18.90
2022-10-24T15:35:35.731Z,18.80
2022-10-24T15:38:21.472Z,18.50
2022-10-24T15:41:06.973Z,18.40
2022-10-24T15:43:53.248Z,18.20
2022-10-24T15:46:38.730Z,18.00
2022-10-24T15:49:24.443Z,17.60
2022-10-24T15:52:15.290Z,17.40
2022-10-24T15:55:00.761Z,17.30
2022-10-24T15:57:46.879Z,17.30
2022-10-24T16:00:33.075Z,17.30
2022-10-24T16:03:22.697Z,17.20
2022-10-24T16:06:08.116Z,17.10
2022-10-24T16:08:54.782Z,17.00
2022-10-24T16:11:40.801Z,16.90
2022-10-24T16:14:26.511Z,16.80
2022-10-24T16:17:11.872Z,16.80
2022-10-24T16:19:57.402Z,16.50
2022-10-24T16:22:43.401Z,16.40
2022-10-24T16:25:32.923Z,16.40
2022-10-24T16:28:22.862Z,16.10
2022-10-24T16:31:09.608Z,16.00
2022-10-24T16:33:55.380Z,15.90
2022-10-24T16:36:41.091Z,15.90
2022-10-24T16:39:26.596Z,15.80
2022-10-24T16:42:12.209Z,15.80
2022-10-24T16:44:57.792Z,15.90
2022-10-24T16:47:43.521Z,15.80
2022-10-24T16:50:30.767Z,15.70
2022-10-24T16:53:18.319Z,15.60
2022-10-24T16:56:04.166Z,15.60
2022-10-24T16:58:49.445Z,15.50
2022-10-24T17:01:35.024Z,15.30
2022-10-24T17:04:20.410Z,15.20
2022-10-24T17:07:06.208Z,15.10
2022-10-24T17:09:51.967Z,15.10
2022-10-24T17:12:38.320Z,15.00
2022-10-24T17:15:23.832Z,14.90
2022-10-24T17:18:09.516Z,14.80
2022-10-24T17:21:00.371Z,14.80
2022-10-24T17:23:46.220Z,14.80
2022-10-24T17:26:31.671Z,14.80
2022-10-24T17:29:30.712Z,14.70
2022-10-24T17:32:17.060Z,14.60
2022-10-24T17:35:02.727Z,14.50
2022-10-24T17:37:51.346Z,14.40
2022-10-24T17:40:43.237Z,14.30
2022-10-24T17:43:29.327Z,14.30
2022-10-24T17:46:15.447Z,14.20
2022-10-24T17:49:01.058Z,14.30
2022-10-24T17:51:47.453Z,14.30
2022-10-24T17:54:34.409Z,14.20
2022-10-24T17:57:21.131Z,14.20
2022-10-24T18:00:08.621Z,14.20
2022-10-24T18:02:54.772Z,14.20
2022-10-24T18:05:40.707Z,14.10
2022-10-24T18:08:26.765Z,14.10
2022-10-24T18:11:14.469Z,14.10
2022-10-24T18:13:59.949Z,14.00
2022-10-24T18:16:45.559Z,14.00
2022-10-24T18:19:31.128Z,14.00
2022-10-24T18:22:16.701Z,13.90
2022-10-24T18:25:02.664Z,14.00
2022-10-24T18:27:48.390Z,14.10
2022-10-24T18:30:35.571Z,14.10
2022-10-24T18:33:21.181Z,14.10
2022-10-24T18:36:15.966Z,14.20
2022-10-24T18:39:01.770Z,14.30
2022-10-24T18:41:53.461Z,14.30
2022-10-24T18:44:39.621Z,14.30
2022-10-24T18:47:26.345Z,14.20
2022-10-24T18:50:18.304Z,14.20
2022-10-24T18:53:08.279Z,14.20
2022-10-24T18:55:54.127Z,14.20
2022-10-24T18:58:41.806Z,14.20
2022-10-24T19:01:39.396Z,14.30
2022-10-24T19:04:26.419Z,14.30
2022-10-24T19:07:11.959Z,14.30
2022-10-24T19:09:57.605Z,14.30
2022-10-24T19:12:43.630Z,14.30
2022-10-24T19:15:29.805Z,14.40
2022-10-24T19:18:17.151Z,14.40
2022-10-24T19:21:05.243Z,14.50
2022-10-24T19:23:51.512Z,14.50
2022-10-24T19:26:37.584Z,14.60
2022-10-24T19:29:23.643Z,14.60
2022-10-24T19:32:09.117Z,14.60
2022-10-24T19:34:55.576Z,14.50
2022-10-24T19:37:41.918Z,14.50
2022-10-24T19:40:27.341Z,14.50
2022-10-24T19:43:13.574Z,14.40
2022-10-24T19:46:19.383Z,14.40
2022-10-24T19:49:05.610Z,14.40
2022-10-24T19:51:52.826Z,14.30
2022-10-24T19:54:38.654Z,14.40
2022-10-24T19:57:24.136Z,14.30
2022-10-24T20:00:10.365Z,14.50
2022-10-24T20:02:56.188Z,14.60
2022-10-24T20:05:42.604Z,14.70
2022-10-24T20:08:28.531Z,14.70
2022-10-24T20:11:15.595Z,14.60
2022-10-24T20:14:01.135Z,14.50
2022-10-24T20:16:46.679Z,14.40
2022-10-24T20:19:32.098Z,14.30
2022-10-24T20:22:17.580Z,14.30
2022-10-24T20:25:03.285Z,14.30
2022-10-24T20:27:49.005Z,14.50
2022-10-24T20:30:46.662Z,14.50
2022-10-24T20:33:32.473Z,14.40
2022-10-24T20:36:18.920Z,14.40
2022-10-24T20:39:06.349Z,14.30
2022-10-24T20:41:54.058Z,14.00
2022-10-24T20:44:39.678Z,13.80
2022-10-24T20:47:25.065Z,13.50
2022-10-24T20:50:11.088Z,13.30
2022-10-24T20:52:56.771Z,13.10
2022-10-24T20:55:44.960Z,13.20
2022-10-24T20:58:30.502Z,13.10
2022-10-24T21:01:21.888Z,13.20
2022-10-24T21:04:07.106Z,13.30
2022-10-24T21:06:52.983Z,13.30
2022-10-24T21:09:38.940Z,13.20
2022-10-24T21:12:24.584Z,13.20
2022-10-24T21:15:10.313Z,13.10
2022-10-24T21:17:55.886Z,13.00
2022-10-24T21:20:41.307Z,12.90
2022-10-24T21:23:26.912Z,12.80
2022-10-24T21:26:14.078Z,12.80
2022-10-24T21:29:09.381Z,12.70
2022-10-24T21:32:05.208Z,12.70
2022-10-24T21:34:51.032Z,12.60
2022-10-24T21:37:36.548Z,12.50
2022-10-24T21:40:22.331Z,12.40
2022-10-24T21:43:07.845Z,12.40
2022-10-24T21:45:53.166Z,12.30
2022-10-24T21:48:40.711Z,12.20
2022-10-24T21:51:28.797Z,12.10
2022-10-24T21:54:22.806Z,12.00
2022-10-24T21:57:08.365Z,12.00
2022-10-24T21:59:53.770Z,12.00
2022-10-24T22:02:39.389Z,12.00
2022-10-24T22:05:24.832Z,11.90
2022-10-24T22:08:10.223Z,11.80
2022-10-24T22:10:58.071Z,11.90
2022-10-24T22:13:44.167Z,11.80
2022-10-24T22:16:32.057Z,11.80
2022-10-24T22:19:17.584Z,11.70
2022-10-24T22:22:03.697Z,11.60
2022-10-24T22:24:49.345Z,11.70
2022-10-24T22:27:35.028Z,11.60
2022-10-24T22:30:20.721Z,11.60
2022-10-24T22:33:07.075Z,11.50
2022-10-24T22:35:58.850Z,11.40
2022-10-24T22:38:44.483Z,11.40
2022-10-24T22:41:30.216Z,11.30
2022-10-24T22:44:20.530Z,11.30
2022-10-24T22:47:27.979Z,11.30
2022-10-24T22:50:28.221Z,11.20
2022-10-24T22:53:15.465Z,11.10
2022-10-24T22:56:15.977Z,11.10
2022-10-24T22:59:01.881Z,11.10
2022-10-24T23:02:05.536Z,11.10
2022-10-24T23:05:30.096Z,11.10
2022-10-24T23:08:34.079Z,11.20
2022-10-24T23:11:19.913Z,11.20
2022-10-24T23:14:05.649Z,11.20
2022-10-24T23:16:59.347Z,11.30
2022-10-24T23:19:46.802Z,11.30
2022-10-24T23:22:33.379Z,11.30
2022-10-24T23:25:19.460Z,11.20
2022-10-24T23:28:18.540Z,11.20
2022-10-24T23:33:49.574Z,11.20
2022-10-24T23:36:35.163Z,11.30
2022-10-24T23:42:06.546Z,11.20
2022-10-24T23:44:52.055Z,11.20
2022-10-24T23:48:11.454Z,11.10
2022-10-24T23:51:07.951Z,11.10
2022-10-24T23:53:57.299Z,11.00
2022-10-24T23:56:42.811Z,10.90
2022-10-24T23:59:28.911Z,10.80
